sensor_id;sensor_type;location;lat;lon;timestamp;P1;durP1;ratioP1;P2;durP2;ratioP2
69623;SDS011;56843;52.020;5.670;2022-12-16T00:00:27;16.15;;;7.55;;
69623;SDS011;56843;52.020;5.670;2022-12-16T00:01:58;28.27;;;13.57;;
69623;SDS011;56843;52.020;5.670;2022-12-16T00:03:28;27.30;;;12.90;;
69623;SDS011;56843;52.020;5.670;2022-12-16T00:04:59;30.97;;;11.83;;
69623;SDS011;56843;52.020;5.670;2022-12-16T00:06:31;20.98;;;10.82;;
69623;SDS011;56843;52.020;5.670;2022-12-16T00:08:03;19.97;;;10.40;;
69623;SDS011;56843;52.020;5.670;2022-12-16T00:09:33;38.13;;;17.85;;
69623;SDS011;56843;52.020;5.670;2022-12-16T00:11:04;34.08;;;15.75;;
69623;SDS011;56843;52.020;5.670;2022-12-16T00:12:37;35.00;;;16.47;;
69623;SDS011;56843;52.020;5.670;2022-12-16T00:14:08;29.42;;;15.15;;
69623;SDS011;56843;52.020;5.670;2022-12-16T00:15:38;36.50;;;15.47;;
69623;SDS011;56843;52.020;5.670;2022-12-16T00:17:09;29.55;;;14.43;;
69623;SDS011;56843;52.020;5.670;2022-12-16T00:18:39;24.77;;;12.20;;
69623;SDS011;56843;52.020;5.670;2022-12-16T00:20:10;18.02;;;9.55;;
69623;SDS011;56843;52.020;5.670;2022-12-16T00:21:41;30.73;;;14.17;;
69623;SDS011;56843;52.020;5.670;2022-12-16T00:23:12;30.23;;;13.50;;
69623;SDS011;56843;52.020;5.670;2022-12-16T00:24:43;22.40;;;10.60;;
69623;SDS011;56843;52.020;5.670;2022-12-16T00:26:14;23.40;;;12.33;;
69623;SDS011;56843;52.020;5.670;2022-12-16T00:27:45;31.80;;;13.25;;
69623;SDS011;56843;52.020;5.670;2022-12-16T00:29:16;22.57;;;11.20;;
69623;SDS011;56843;52.020;5.670;2022-12-16T00:30:46;29.13;;;13.50;;
69623;SDS011;56843;52.020;5.670;2022-12-16T00:32:19;21.23;;;11.23;;
69623;SDS011;56843;52.020;5.670;2022-12-16T00:33:50;25.03;;;12.23;;
69623;SDS011;56843;52.020;5.670;2022-12-16T00:35:22;26.50;;;12.68;;
69623;SDS011;56843;52.020;5.670;2022-12-16T00:36:52;21.93;;;10.73;;
69623;SDS011;56843;52.020;5.670;2022-12-16T00:38:24;24.88;;;11.70;;
69623;SDS011;56843;52.020;5.670;2022-12-16T00:39:55;23.50;;;10.30;;
69623;SDS011;56843;52.020;5.670;2022-12-16T00:41:26;30.00;;;13.03;;
69623;SDS011;56843;52.020;5.670;2022-12-16T00:42:56;43.13;;;16.57;;
69623;SDS011;56843;52.020;5.670;2022-12-16T00:44:27;26.92;;;13.82;;
69623;SDS011;56843;52.020;5.670;2022-12-16T00:45:57;31.17;;;14.87;;
69623;SDS011;56843;52.020;5.670;2022-12-16T00:47:28;31.27;;;13.73;;
69623;SDS011;56843;52.020;5.670;2022-12-16T00:48:58;25.10;;;10.88;;
69623;SDS011;56843;52.020;5.670;2022-12-16T00:50:29;24.13;;;10.53;;
69623;SDS011;56843;52.020;5.670;2022-12-16T00:51:59;27.95;;;12.95;;
69623;SDS011;56843;52.020;5.670;2022-12-16T00:53:30;20.30;;;9.67;;
69623;SDS011;56843;52.020;5.670;2022-12-16T00:55:00;26.77;;;11.87;;
69623;SDS011;56843;52.020;5.670;2022-12-16T00:56:31;22.58;;;10.98;;
69623;SDS011;56843;52.020;5.670;2022-12-16T00:58:02;29.58;;;9.52;;
69623;SDS011;56843;52.020;5.670;2022-12-16T00:59:32;19.90;;;10.17;;
69623;SDS011;56843;52.020;5.670;2022-12-16T01:01:03;28.53;;;11.87;;
69623;SDS011;56843;52.020;5.670;2022-12-16T01:02:34;19.48;;;10.00;;
69623;SDS011;56843;52.020;5.670;2022-12-16T01:04:05;33.73;;;15.03;;
69623;SDS011;56843;52.020;5.670;2022-12-16T01:05:36;22.50;;;10.35;;
69623;SDS011;56843;52.020;5.670;2022-12-16T01:07:08;30.83;;;12.50;;
69623;SDS011;56843;52.020;5.670;2022-12-16T01:08:38;28.50;;;13.83;;
69623;SDS011;56843;52.020;5.670;2022-12-16T01:10:09;32.67;;;14.35;;
69623;SDS011;56843;52.020;5.670;2022-12-16T01:11:40;30.15;;;12.60;;
69623;SDS011;56843;52.020;5.670;2022-12-16T01:13:11;29.23;;;13.10;;
69623;SDS011;56843;52.020;5.670;2022-12-16T01:14:41;39.33;;;14.33;;
69623;SDS011;56843;52.020;5.670;2022-12-16T01:16:12;22.65;;;10.98;;
69623;SDS011;56843;52.020;5.670;2022-12-16T01:17:44;32.22;;;12.95;;
69623;SDS011;56843;52.020;5.670;2022-12-16T01:19:15;21.77;;;11.63;;
69623;SDS011;56843;52.020;5.670;2022-12-16T01:20:45;24.92;;;10.50;;
69623;SDS011;56843;52.020;5.670;2022-12-16T01:22:16;16.27;;;7.07;;
69623;SDS011;56843;52.020;5.670;2022-12-16T01:23:46;27.25;;;12.23;;
69623;SDS011;56843;52.020;5.670;2022-12-16T01:25:17;25.63;;;12.93;;
69623;SDS011;56843;52.020;5.670;2022-12-16T01:26:48;22.15;;;11.48;;
69623;SDS011;56843;52.020;5.670;2022-12-16T01:28:18;22.17;;;12.70;;
69623;SDS011;56843;52.020;5.670;2022-12-16T01:29:49;24.08;;;10.73;;
69623;SDS011;56843;52.020;5.670;2022-12-16T01:31:20;24.90;;;11.50;;
69623;SDS011;56843;52.020;5.670;2022-12-16T01:32:52;18.85;;;8.32;;
69623;SDS011;56843;52.020;5.670;2022-12-16T01:34:23;28.47;;;10.40;;
69623;SDS011;56843;52.020;5.670;2022-12-16T01:36:06;34.73;;;15.43;;
69623;SDS011;56843;52.020;5.670;2022-12-16T01:37:37;24.63;;;11.55;;
69623;SDS011;56843;52.020;5.670;2022-12-16T01:39:09;24.95;;;12.13;;
69623;SDS011;56843;52.020;5.670;2022-12-16T01:40:40;20.67;;;9.20;;
69623;SDS011;56843;52.020;5.670;2022-12-16T01:42:11;24.23;;;9.10;;
69623;SDS011;56843;52.020;5.670;2022-12-16T01:43:43;33.35;;;13.63;;
69623;SDS011;56843;52.020;5.670;2022-12-16T01:45:26;23.07;;;12.47;;
69623;SDS011;56843;52.020;5.670;2022-12-16T01:47:01;23.55;;;12.15;;
69623;SDS011;56843;52.020;5.670;2022-12-16T01:48:37;28.80;;;13.50;;
69623;SDS011;56843;52.020;5.670;2022-12-16T01:50:14;32.38;;;14.45;;
69623;SDS011;56843;52.020;5.670;2022-12-16T01:51:46;22.42;;;12.13;;
69623;SDS011;56843;52.020;5.670;2022-12-16T01:53:17;32.57;;;11.60;;
69623;SDS011;56843;52.020;5.670;2022-12-16T01:54:53;26.73;;;12.50;;
69623;SDS011;56843;52.020;5.670;2022-12-16T01:56:29;25.42;;;12.65;;
69623;SDS011;56843;52.020;5.670;2022-12-16T01:58:06;28.38;;;12.88;;
69623;SDS011;56843;52.020;5.670;2022-12-16T01:59:41;27.03;;;11.17;;
69623;SDS011;56843;52.020;5.670;2022-12-16T02:02:56;23.05;;;9.85;;
69623;SDS011;56843;52.020;5.670;2022-12-16T02:04:27;32.40;;;14.40;;
69623;SDS011;56843;52.020;5.670;2022-12-16T02:05:58;29.73;;;11.90;;
69623;SDS011;56843;52.020;5.670;2022-12-16T02:07:29;29.27;;;13.02;;
69623;SDS011;56843;52.020;5.670;2022-12-16T02:09:01;24.92;;;10.70;;
69623;SDS011;56843;52.020;5.670;2022-12-16T02:10:42;28.63;;;12.03;;
69623;SDS011;56843;52.020;5.670;2022-12-16T02:12:33;21.33;;;9.27;;
69623;SDS011;56843;52.020;5.670;2022-12-16T02:16:35;24.67;;;11.02;;
69623;SDS011;56843;52.020;5.670;2022-12-16T02:20:21;23.63;;;10.77;;
69623;SDS011;56843;52.020;5.670;2022-12-16T02:24:25;22.48;;;11.10;;
69623;SDS011;56843;52.020;5.670;2022-12-16T02:28:33;29.27;;;11.05;;
69623;SDS011;56843;52.020;5.670;2022-12-16T02:39:35;20.20;;;10.93;;
69623;SDS011;56843;52.020;5.670;2022-12-16T02:41:13;22.45;;;11.25;;
69623;SDS011;56843;52.020;5.670;2022-12-16T02:42:56;24.73;;;10.23;;
69623;SDS011;56843;52.020;5.670;2022-12-16T02:44:36;21.47;;;10.57;;
69623;SDS011;56843;52.020;5.670;2022-12-16T02:46:24;23.20;;;11.60;;
69623;SDS011;56843;52.020;5.670;2022-12-16T02:47:57;27.25;;;13.10;;
69623;SDS011;56843;52.020;5.670;2022-12-16T02:50:58;28.37;;;12.47;;
69623;SDS011;56843;52.020;5.670;2022-12-16T02:52:29;27.60;;;12.23;;
69623;SDS011;56843;52.020;5.670;2022-12-16T02:54:02;23.92;;;11.80;;
69623;SDS011;56843;52.020;5.670;2022-12-16T02:57:52;25.80;;;12.85;;
69623;SDS011;56843;52.020;5.670;2022-12-16T02:59:47;26.55;;;7.32;;
69623;SDS011;56843;52.020;5.670;2022-12-16T03:02:14;18.37;;;9.33;;
69623;SDS011;56843;52.020;5.670;2022-12-16T03:03:33;22.17;;;10.13;;
69623;SDS011;56843;52.020;5.670;2022-12-16T03:05:19;24.67;;;9.95;;
69623;SDS011;56843;52.020;5.670;2022-12-16T03:06:55;20.08;;;8.55;;
69623;SDS011;56843;52.020;5.670;2022-12-16T03:08:31;23.65;;;10.73;;
69623;SDS011;56843;52.020;5.670;2022-12-16T03:10:05;25.88;;;13.27;;
69623;SDS011;56843;52.020;5.670;2022-12-16T03:11:39;26.55;;;12.48;;
69623;SDS011;56843;52.020;5.670;2022-12-16T03:13:13;21.73;;;10.47;;
69623;SDS011;56843;52.020;5.670;2022-12-16T03:14:50;21.20;;;7.53;;
69623;SDS011;56843;52.020;5.670;2022-12-16T03:16:26;19.17;;;8.68;;
69623;SDS011;56843;52.020;5.670;2022-12-16T03:18:00;21.88;;;9.25;;
69623;SDS011;56843;52.020;5.670;2022-12-16T03:19:34;17.13;;;8.13;;
69623;SDS011;56843;52.020;5.670;2022-12-16T03:21:08;20.65;;;9.98;;
69623;SDS011;56843;52.020;5.670;2022-12-16T03:22:40;22.58;;;10.23;;
69623;SDS011;56843;52.020;5.670;2022-12-16T03:24:13;23.03;;;11.33;;
69623;SDS011;56843;52.020;5.670;2022-12-16T03:25:46;28.45;;;12.32;;
69623;SDS011;56843;52.020;5.670;2022-12-16T03:27:38;27.05;;;11.70;;
69623;SDS011;56843;52.020;5.670;2022-12-16T03:29:26;34.65;;;13.35;;
69623;SDS011;56843;52.020;5.670;2022-12-16T03:31:16;19.52;;;11.07;;
69623;SDS011;56843;52.020;5.670;2022-12-16T03:32:58;29.75;;;11.50;;
69623;SDS011;56843;52.020;5.670;2022-12-16T03:35:00;19.73;;;9.40;;
69623;SDS011;56843;52.020;5.670;2022-12-16T03:36:43;22.85;;;8.70;;
69623;SDS011;56843;52.020;5.670;2022-12-16T03:38:23;23.10;;;11.15;;
69623;SDS011;56843;52.020;5.670;2022-12-16T03:39:57;24.75;;;11.77;;
69623;SDS011;56843;52.020;5.670;2022-12-16T03:41:30;26.08;;;8.70;;
69623;SDS011;56843;52.020;5.670;2022-12-16T03:43:02;22.97;;;10.50;;
69623;SDS011;56843;52.020;5.670;2022-12-16T03:44:34;28.47;;;11.77;;
69623;SDS011;56843;52.020;5.670;2022-12-16T03:46:05;22.38;;;11.00;;
69623;SDS011;56843;52.020;5.670;2022-12-16T03:47:38;26.00;;;12.85;;
69623;SDS011;56843;52.020;5.670;2022-12-16T03:49:10;28.03;;;10.40;;
69623;SDS011;56843;52.020;5.670;2022-12-16T03:50:41;30.65;;;14.98;;
69623;SDS011;56843;52.020;5.670;2022-12-16T03:52:11;28.95;;;14.48;;
69623;SDS011;56843;52.020;5.670;2022-12-16T03:53:42;43.00;;;13.73;;
69623;SDS011;56843;52.020;5.670;2022-12-16T03:55:13;33.15;;;14.05;;
69623;SDS011;56843;52.020;5.670;2022-12-16T03:56:43;19.27;;;9.20;;
69623;SDS011;56843;52.020;5.670;2022-12-16T03:58:14;32.70;;;11.57;;
69623;SDS011;56843;52.020;5.670;2022-12-16T03:59:44;29.63;;;10.98;;
69623;SDS011;56843;52.020;5.670;2022-12-16T04:01:14;25.67;;;11.00;;
69623;SDS011;56843;52.020;5.670;2022-12-16T04:02:45;28.33;;;12.07;;
69623;SDS011;56843;52.020;5.670;2022-12-16T04:04:16;29.50;;;13.98;;
69623;SDS011;56843;52.020;5.670;2022-12-16T04:05:47;30.13;;;14.00;;
69623;SDS011;56843;52.020;5.670;2022-12-16T04:07:18;34.97;;;12.03;;
69623;SDS011;56843;52.020;5.670;2022-12-16T04:08:53;28.85;;;9.93;;
69623;SDS011;56843;52.020;5.670;2022-12-16T04:10:23;21.50;;;11.20;;
69623;SDS011;56843;52.020;5.670;2022-12-16T04:12:12;19.90;;;8.75;;
69623;SDS011;56843;52.020;5.670;2022-12-16T04:14:02;8.15;;;3.97;;
69623;SDS011;56843;52.020;5.670;2022-12-16T04:15:51;25.55;;;9.18;;
69623;SDS011;56843;52.020;5.670;2022-12-16T04:17:40;11.13;;;4.82;;
69623;SDS011;56843;52.020;5.670;2022-12-16T04:19:31;28.10;;;10.80;;
69623;SDS011;56843;52.020;5.670;2022-12-16T04:21:22;6.30;;;3.25;;
69623;SDS011;56843;52.020;5.670;2022-12-16T04:23:11;15.67;;;6.77;;
69623;SDS011;56843;52.020;5.670;2022-12-16T04:25:04;12.32;;;4.95;;
69623;SDS011;56843;52.020;5.670;2022-12-16T04:26:41;30.40;;;12.60;;
69623;SDS011;56843;52.020;5.670;2022-12-16T04:28:30;23.25;;;9.70;;
69623;SDS011;56843;52.020;5.670;2022-12-16T04:30:01;21.60;;;10.47;;
69623;SDS011;56843;52.020;5.670;2022-12-16T04:31:49;30.15;;;10.63;;
69623;SDS011;56843;52.020;5.670;2022-12-16T04:33:21;14.90;;;7.18;;
69623;SDS011;56843;52.020;5.670;2022-12-16T04:35:11;21.80;;;7.82;;
69623;SDS011;56843;52.020;5.670;2022-12-16T04:37:01;20.70;;;8.10;;
69623;SDS011;56843;52.020;5.670;2022-12-16T04:38:50;24.30;;;11.33;;
69623;SDS011;56843;52.020;5.670;2022-12-16T04:40:40;10.43;;;4.00;;
69623;SDS011;56843;52.020;5.670;2022-12-16T04:42:30;19.92;;;9.48;;
69623;SDS011;56843;52.020;5.670;2022-12-16T04:44:20;23.45;;;11.00;;
69623;SDS011;56843;52.020;5.670;2022-12-16T04:46:09;18.45;;;8.35;;
69623;SDS011;56843;52.020;5.670;2022-12-16T04:47:58;13.95;;;4.82;;
69623;SDS011;56843;52.020;5.670;2022-12-16T04:49:48;16.23;;;7.80;;
69623;SDS011;56843;52.020;5.670;2022-12-16T04:51:36;19.77;;;9.50;;
69623;SDS011;56843;52.020;5.670;2022-12-16T04:53:26;14.30;;;6.88;;
69623;SDS011;56843;52.020;5.670;2022-12-16T04:55:15;12.80;;;5.82;;
69623;SDS011;56843;52.020;5.670;2022-12-16T04:57:04;27.00;;;10.05;;
69623;SDS011;56843;52.020;5.670;2022-12-16T04:58:54;19.27;;;8.13;;
69623;SDS011;56843;52.020;5.670;2022-12-16T05:00:44;12.00;;;6.15;;
69623;SDS011;56843;52.020;5.670;2022-12-16T05:02:34;17.80;;;7.47;;
69623;SDS011;56843;52.020;5.670;2022-12-16T05:04:23;26.73;;;10.80;;
69623;SDS011;56843;52.020;5.670;2022-12-16T05:06:12;32.47;;;12.03;;
69623;SDS011;56843;52.020;5.670;2022-12-16T05:08:02;26.80;;;13.45;;
69623;SDS011;56843;52.020;5.670;2022-12-16T05:09:51;15.35;;;7.40;;
69623;SDS011;56843;52.020;5.670;2022-12-16T05:11:41;17.10;;;7.82;;
69623;SDS011;56843;52.020;5.670;2022-12-16T05:13:30;12.00;;;5.95;;
69623;SDS011;56843;52.020;5.670;2022-12-16T05:15:19;19.13;;;8.63;;
69623;SDS011;56843;52.020;5.670;2022-12-16T05:17:08;22.43;;;9.17;;
69623;SDS011;56843;52.020;5.670;2022-12-16T05:18:57;20.02;;;9.35;;
69623;SDS011;56843;52.020;5.670;2022-12-16T05:20:46;19.35;;;9.40;;
69623;SDS011;56843;52.020;5.670;2022-12-16T05:22:35;24.45;;;10.43;;
69623;SDS011;56843;52.020;5.670;2022-12-16T05:24:24;19.10;;;8.75;;
69623;SDS011;56843;52.020;5.670;2022-12-16T05:26:13;28.63;;;9.98;;
69623;SDS011;56843;52.020;5.670;2022-12-16T05:28:02;21.87;;;9.50;;
69623;SDS011;56843;52.020;5.670;2022-12-16T05:29:51;26.43;;;11.80;;
69623;SDS011;56843;52.020;5.670;2022-12-16T05:31:40;21.10;;;11.70;;
69623;SDS011;56843;52.020;5.670;2022-12-16T05:33:29;21.98;;;10.43;;
69623;SDS011;56843;52.020;5.670;2022-12-16T05:35:18;16.23;;;7.88;;
69623;SDS011;56843;52.020;5.670;2022-12-16T05:37:07;19.17;;;7.07;;
69623;SDS011;56843;52.020;5.670;2022-12-16T05:39:10;14.52;;;6.50;;
69623;SDS011;56843;52.020;5.670;2022-12-16T05:40:59;21.57;;;9.60;;
69623;SDS011;56843;52.020;5.670;2022-12-16T05:42:52;15.03;;;6.27;;
69623;SDS011;56843;52.020;5.670;2022-12-16T05:44:42;24.85;;;8.07;;
69623;SDS011;56843;52.020;5.670;2022-12-16T05:46:31;14.75;;;7.78;;
69623;SDS011;56843;52.020;5.670;2022-12-16T05:48:20;28.50;;;9.70;;
69623;SDS011;56843;52.020;5.670;2022-12-16T05:50:09;21.15;;;8.98;;
69623;SDS011;56843;52.020;5.670;2022-12-16T05:52:11;20.13;;;9.00;;
69623;SDS011;56843;52.020;5.670;2022-12-16T05:54:00;21.77;;;9.97;;
69623;SDS011;56843;52.020;5.670;2022-12-16T05:55:49;20.75;;;8.13;;
69623;SDS011;56843;52.020;5.670;2022-12-16T05:57:38;24.45;;;9.43;;
69623;SDS011;56843;52.020;5.670;2022-12-16T05:59:28;15.50;;;7.22;;
69623;SDS011;56843;52.020;5.670;2022-12-16T06:01:16;19.70;;;7.20;;
69623;SDS011;56843;52.020;5.670;2022-12-16T06:03:05;22.23;;;9.90;;
69623;SDS011;56843;52.020;5.670;2022-12-16T06:04:55;19.03;;;8.50;;
69623;SDS011;56843;52.020;5.670;2022-12-16T06:06:43;24.45;;;9.85;;
69623;SDS011;56843;52.020;5.670;2022-12-16T06:08:33;20.85;;;9.25;;
69623;SDS011;56843;52.020;5.670;2022-12-16T06:10:21;16.50;;;7.35;;
69623;SDS011;56843;52.020;5.670;2022-12-16T06:12:11;18.20;;;8.15;;
69623;SDS011;56843;52.020;5.670;2022-12-16T06:14:00;19.55;;;8.18;;
69623;SDS011;56843;52.020;5.670;2022-12-16T06:15:49;18.00;;;6.77;;
69623;SDS011;56843;52.020;5.670;2022-12-16T06:17:42;16.02;;;8.32;;
69623;SDS011;56843;52.020;5.670;2022-12-16T06:19:35;15.45;;;5.80;;
69623;SDS011;56843;52.020;5.670;2022-12-16T06:21:24;14.05;;;6.28;;
69623;SDS011;56843;52.020;5.670;2022-12-16T06:23:13;19.27;;;10.82;;
69623;SDS011;56843;52.020;5.670;2022-12-16T06:25:02;18.55;;;8.68;;
69623;SDS011;56843;52.020;5.670;2022-12-16T06:26:51;21.88;;;8.50;;
69623;SDS011;56843;52.020;5.670;2022-12-16T06:28:40;22.67;;;9.20;;
69623;SDS011;56843;52.020;5.670;2022-12-16T06:30:29;19.85;;;7.82;;
69623;SDS011;56843;52.020;5.670;2022-12-16T06:32:18;20.17;;;9.73;;
69623;SDS011;56843;52.020;5.670;2022-12-16T06:34:07;27.83;;;10.43;;
69623;SDS011;56843;52.020;5.670;2022-12-16T06:35:56;16.48;;;7.60;;
69623;SDS011;56843;52.020;5.670;2022-12-16T06:37:46;25.88;;;11.10;;
69623;SDS011;56843;52.020;5.670;2022-12-16T06:39:35;21.97;;;10.90;;
69623;SDS011;56843;52.020;5.670;2022-12-16T06:41:24;17.58;;;7.03;;
69623;SDS011;56843;52.020;5.670;2022-12-16T06:43:13;18.23;;;7.97;;
69623;SDS011;56843;52.020;5.670;2022-12-16T06:45:02;17.38;;;8.00;;
69623;SDS011;56843;52.020;5.670;2022-12-16T06:46:51;20.50;;;8.57;;
69623;SDS011;56843;52.020;5.670;2022-12-16T06:48:41;23.33;;;8.82;;
69623;SDS011;56843;52.020;5.670;2022-12-16T06:50:29;19.17;;;8.30;;
69623;SDS011;56843;52.020;5.670;2022-12-16T06:52:19;17.17;;;6.43;;
69623;SDS011;56843;52.020;5.670;2022-12-16T06:54:08;22.70;;;7.82;;
69623;SDS011;56843;52.020;5.670;2022-12-16T06:55:57;16.90;;;7.90;;
69623;SDS011;56843;52.020;5.670;2022-12-16T06:57:57;18.75;;;8.07;;
69623;SDS011;56843;52.020;5.670;2022-12-16T06:59:46;22.35;;;7.90;;
69623;SDS011;56843;52.020;5.670;2022-12-16T07:01:37;14.23;;;6.67;;
69623;SDS011;56843;52.020;5.670;2022-12-16T07:03:26;9.82;;;5.82;;
69623;SDS011;56843;52.020;5.670;2022-12-16T07:05:16;24.55;;;8.32;;
69623;SDS011;56843;52.020;5.670;2022-12-16T07:07:05;11.68;;;5.70;;
69623;SDS011;56843;52.020;5.670;2022-12-16T07:09:11;12.82;;;5.45;;
69623;SDS011;56843;52.020;5.670;2022-12-16T07:11:00;18.10;;;7.00;;
69623;SDS011;56843;52.020;5.670;2022-12-16T07:12:49;13.60;;;6.93;;
69623;SDS011;56843;52.020;5.670;2022-12-16T07:14:39;18.20;;;6.53;;
69623;SDS011;56843;52.020;5.670;2022-12-16T07:16:28;12.27;;;6.38;;
69623;SDS011;56843;52.020;5.670;2022-12-16T07:18:17;10.57;;;5.30;;
69623;SDS011;56843;52.020;5.670;2022-12-16T07:20:06;16.65;;;7.68;;
69623;SDS011;56843;52.020;5.670;2022-12-16T07:21:56;16.55;;;6.25;;
69623;SDS011;56843;52.020;5.670;2022-12-16T07:23:45;14.87;;;5.30;;
69623;SDS011;56843;52.020;5.670;2022-12-16T07:25:34;14.80;;;5.90;;
69623;SDS011;56843;52.020;5.670;2022-12-16T07:27:23;16.88;;;5.97;;
69623;SDS011;56843;52.020;5.670;2022-12-16T07:29:12;18.15;;;7.85;;
69623;SDS011;56843;52.020;5.670;2022-12-16T07:31:01;15.43;;;6.22;;
69623;SDS011;56843;52.020;5.670;2022-12-16T07:32:50;20.55;;;6.75;;
69623;SDS011;56843;52.020;5.670;2022-12-16T07:34:39;12.93;;;6.67;;
69623;SDS011;56843;52.020;5.670;2022-12-16T07:36:28;20.17;;;8.93;;
69623;SDS011;56843;52.020;5.670;2022-12-16T07:38:18;19.42;;;6.22;;
69623;SDS011;56843;52.020;5.670;2022-12-16T07:40:07;19.67;;;8.48;;
69623;SDS011;56843;52.020;5.670;2022-12-16T07:41:56;20.50;;;8.63;;
69623;SDS011;56843;52.020;5.670;2022-12-16T07:43:45;23.90;;;9.70;;
69623;SDS011;56843;52.020;5.670;2022-12-16T07:45:35;14.27;;;7.23;;
69623;SDS011;56843;52.020;5.670;2022-12-16T07:47:24;13.30;;;5.50;;
69623;SDS011;56843;52.020;5.670;2022-12-16T07:49:14;37.00;;;8.70;;
69623;SDS011;56843;52.020;5.670;2022-12-16T07:51:03;13.27;;;5.88;;
69623;SDS011;56843;52.020;5.670;2022-12-16T07:52:53;14.48;;;6.95;;
69623;SDS011;56843;52.020;5.670;2022-12-16T07:54:43;26.73;;;7.18;;
69623;SDS011;56843;52.020;5.670;2022-12-16T07:56:33;11.13;;;5.57;;
69623;SDS011;56843;52.020;5.670;2022-12-16T07:58:22;12.93;;;6.07;;
69623;SDS011;56843;52.020;5.670;2022-12-16T08:00:11;15.15;;;6.60;;
69623;SDS011;56843;52.020;5.670;2022-12-16T08:02:01;13.48;;;6.05;;
69623;SDS011;56843;52.020;5.670;2022-12-16T08:03:50;11.02;;;5.82;;
69623;SDS011;56843;52.020;5.670;2022-12-16T08:05:39;14.18;;;6.85;;
69623;SDS011;56843;52.020;5.670;2022-12-16T08:07:28;19.00;;;8.27;;
69623;SDS011;56843;52.020;5.670;2022-12-16T08:09:17;22.27;;;11.40;;
69623;SDS011;56843;52.020;5.670;2022-12-16T08:11:06;19.42;;;8.75;;
69623;SDS011;56843;52.020;5.670;2022-12-16T08:13:01;22.88;;;8.40;;
69623;SDS011;56843;52.020;5.670;2022-12-16T08:14:52;29.77;;;12.40;;
69623;SDS011;56843;52.020;5.670;2022-12-16T08:16:41;26.50;;;11.18;;
69623;SDS011;56843;52.020;5.670;2022-12-16T08:18:30;27.10;;;10.47;;
69623;SDS011;56843;52.020;5.670;2022-12-16T08:20:19;34.40;;;13.38;;
69623;SDS011;56843;52.020;5.670;2022-12-16T08:22:08;26.95;;;13.00;;
69623;SDS011;56843;52.020;5.670;2022-12-16T08:23:57;23.77;;;13.38;;
69623;SDS011;56843;52.020;5.670;2022-12-16T08:25:46;24.88;;;13.32;;
69623;SDS011;56843;52.020;5.670;2022-12-16T08:27:35;20.20;;;10.15;;
69623;SDS011;56843;52.020;5.670;2022-12-16T08:29:24;17.43;;;8.13;;
69623;SDS011;56843;52.020;5.670;2022-12-16T08:31:13;25.30;;;11.57;;
69623;SDS011;56843;52.020;5.670;2022-12-16T08:33:02;22.15;;;11.15;;
69623;SDS011;56843;52.020;5.670;2022-12-16T08:34:51;27.40;;;12.55;;
69623;SDS011;56843;52.020;5.670;2022-12-16T08:36:40;22.90;;;9.57;;
69623;SDS011;56843;52.020;5.670;2022-12-16T08:38:29;18.70;;;9.05;;
69623;SDS011;56843;52.020;5.670;2022-12-16T08:40:18;21.45;;;9.88;;
69623;SDS011;56843;52.020;5.670;2022-12-16T08:42:07;18.30;;;9.23;;
69623;SDS011;56843;52.020;5.670;2022-12-16T08:43:56;20.13;;;8.40;;
69623;SDS011;56843;52.020;5.670;2022-12-16T08:45:45;15.77;;;8.57;;
69623;SDS011;56843;52.020;5.670;2022-12-16T08:47:35;23.30;;;9.73;;
69623;SDS011;56843;52.020;5.670;2022-12-16T08:49:24;16.67;;;6.70;;
69623;SDS011;56843;52.020;5.670;2022-12-16T08:51:13;12.30;;;5.80;;
69623;SDS011;56843;52.020;5.670;2022-12-16T08:53:02;16.25;;;6.03;;
69623;SDS011;56843;52.020;5.670;2022-12-16T08:54:51;11.77;;;6.00;;
69623;SDS011;56843;52.020;5.670;2022-12-16T08:56:41;25.20;;;9.50;;
69623;SDS011;56843;52.020;5.670;2022-12-16T08:58:30;16.60;;;8.45;;
69623;SDS011;56843;52.020;5.670;2022-12-16T09:00:19;19.75;;;9.00;;
69623;SDS011;56843;52.020;5.670;2022-12-16T09:02:09;12.85;;;5.78;;
69623;SDS011;56843;52.020;5.670;2022-12-16T09:03:59;13.18;;;5.95;;
69623;SDS011;56843;52.020;5.670;2022-12-16T09:05:48;15.95;;;6.95;;
69623;SDS011;56843;52.020;5.670;2022-12-16T09:07:37;13.03;;;6.13;;
69623;SDS011;56843;52.020;5.670;2022-12-16T09:09:26;17.25;;;8.30;;
69623;SDS011;56843;52.020;5.670;2022-12-16T09:11:15;18.90;;;9.27;;
69623;SDS011;56843;52.020;5.670;2022-12-16T09:13:05;22.02;;;9.15;;
69623;SDS011;56843;52.020;5.670;2022-12-16T09:15:01;20.95;;;9.10;;
69623;SDS011;56843;52.020;5.670;2022-12-16T09:16:50;18.40;;;8.18;;
69623;SDS011;56843;52.020;5.670;2022-12-16T09:18:39;22.27;;;10.33;;
69623;SDS011;56843;52.020;5.670;2022-12-16T09:20:28;20.70;;;10.07;;
69623;SDS011;56843;52.020;5.670;2022-12-16T09:22:17;25.00;;;10.52;;
69623;SDS011;56843;52.020;5.670;2022-12-16T09:24:06;22.92;;;10.40;;
69623;SDS011;56843;52.020;5.670;2022-12-16T09:25:55;15.63;;;8.02;;
69623;SDS011;56843;52.020;5.670;2022-12-16T09:27:47;16.50;;;8.25;;
69623;SDS011;56843;52.020;5.670;2022-12-16T09:29:37;13.47;;;6.90;;
69623;SDS011;56843;52.020;5.670;2022-12-16T09:31:26;13.97;;;7.73;;
69623;SDS011;56843;52.020;5.670;2022-12-16T09:33:15;18.67;;;9.65;;
69623;SDS011;56843;52.020;5.670;2022-12-16T09:35:04;10.57;;;5.60;;
69623;SDS011;56843;52.020;5.670;2022-12-16T09:36:53;9.65;;;3.25;;
69623;SDS011;56843;52.020;5.670;2022-12-16T09:38:42;7.07;;;3.78;;
69623;SDS011;56843;52.020;5.670;2022-12-16T09:40:31;8.65;;;3.83;;
69623;SDS011;56843;52.020;5.670;2022-12-16T09:42:29;13.87;;;5.93;;
69623;SDS011;56843;52.020;5.670;2022-12-16T09:44:37;17.60;;;6.53;;
69623;SDS011;56843;52.020;5.670;2022-12-16T09:50:54;7.78;;;3.80;;
69623;SDS011;56843;52.020;5.670;2022-12-16T09:52:59;12.45;;;5.88;;
69623;SDS011;56843;52.020;5.670;2022-12-16T09:54:54;19.83;;;6.15;;
69623;SDS011;56843;52.020;5.670;2022-12-16T09:56:43;15.47;;;6.17;;
69623;SDS011;56843;52.020;5.670;2022-12-16T09:58:35;9.45;;;5.25;;
69623;SDS011;56843;52.020;5.670;2022-12-16T10:00:29;13.90;;;6.88;;
69623;SDS011;56843;52.020;5.670;2022-12-16T10:02:19;13.70;;;5.35;;
69623;SDS011;56843;52.020;5.670;2022-12-16T10:04:08;20.63;;;7.55;;
69623;SDS011;56843;52.020;5.670;2022-12-16T10:06:00;12.25;;;5.78;;
69623;SDS011;56843;52.020;5.670;2022-12-16T10:07:56;13.97;;;5.93;;
69623;SDS011;56843;52.020;5.670;2022-12-16T10:09:52;15.40;;;6.87;;
69623;SDS011;56843;52.020;5.670;2022-12-16T10:12:00;16.58;;;6.30;;
69623;SDS011;56843;52.020;5.670;2022-12-16T10:14:12;14.43;;;5.10;;
69623;SDS011;56843;52.020;5.670;2022-12-16T10:16:28;16.38;;;5.78;;
69623;SDS011;56843;52.020;5.670;2022-12-16T10:20:53;16.95;;;7.15;;
69623;SDS011;56843;52.020;5.670;2022-12-16T10:22:46;15.97;;;7.40;;
69623;SDS011;56843;52.020;5.670;2022-12-16T10:26:43;10.25;;;4.25;;
69623;SDS011;56843;52.020;5.670;2022-12-16T10:29:05;15.18;;;5.80;;
69623;SDS011;56843;52.020;5.670;2022-12-16T10:31:11;17.50;;;6.60;;
69623;SDS011;56843;52.020;5.670;2022-12-16T10:33:03;16.90;;;6.97;;
69623;SDS011;56843;52.020;5.670;2022-12-16T10:34:59;18.05;;;5.43;;
69623;SDS011;56843;52.020;5.670;2022-12-16T10:36:50;11.97;;;5.90;;
69623;SDS011;56843;52.020;5.670;2022-12-16T10:41:01;11.75;;;5.80;;
69623;SDS011;56843;52.020;5.670;2022-12-16T10:42:58;12.23;;;4.68;;
69623;SDS011;56843;52.020;5.670;2022-12-16T10:44:56;15.75;;;5.90;;
69623;SDS011;56843;52.020;5.670;2022-12-16T10:46:48;21.00;;;5.75;;